Time;durP1;ratioP1;P1;durP2;ratioP2;P2;SDS_P1;SDS_P2;PMS_P1;PMS_P2;Temp;Humidity;BMP_temperature;BMP_pressure;BME280_temperature;BME280_humidity;BME280_pressure;Samples;Min_cycle;Max_cycle;Signal;HPM_P1;HPM_P2
2023/08/04 00:01:05;;;;;;;3.10;1.60;;;;;;;17.94;68.03;99350.35;131065;1254;107475;-78
2023/08/04 00:04:11;;;;;;;4.00;1.70;;;;;;;17.89;68.33;99349.16;131104;1251;107547;-79
2023/08/04 00:07:16;;;;;;;3.20;1.40;;;;;;;17.83;68.39;99360.02;130985;1254;107530;-79
2023/08/04 00:10:22;;;;;;;4.40;1.50;;;;;;;17.80;68.50;99360.84;130918;1264;107500;-79
2023/08/04 00:13:27;;;;;;;4.10;1.70;;;;;;;17.77;68.63;99359.79;130988;1253;107525;-78
2023/08/04 00:16:33;;;;;;;4.40;1.60;;;;;;;17.78;68.71;99354.00;131016;1251;108431;-78
2023/08/04 00:19:38;;;;;;;2.60;1.50;;;;;;;17.80;68.79;99350.11;130979;1251;107476;-79
2023/08/04 00:22:44;;;;;;;3.30;1.60;;;;;;;17.81;68.65;99353.38;131031;1253;107625;-79
2023/08/04 00:25:49;;;;;;;4.30;1.80;;;;;;;17.81;68.76;99353.88;130964;1250;107472;-79
2023/08/04 00:28:55;;;;;;;3.80;1.40;;;;;;;17.80;68.77;99357.01;131049;1254;106571;-79
2023/08/04 00:32:00;;;;;;;2.20;1.30;;;;;;;17.76;68.99;99359.34;131115;1255;105682;-79
2023/08/04 00:35:07;;;;;;;4.40;1.80;;;;;;;17.73;68.93;99359.10;131092;1251;109460;-79
2023/08/04 00:38:12;;;;;;;2.50;1.20;;;;;;;17.68;69.15;99359.81;131006;1254;107581;-79
2023/08/04 00:41:18;;;;;;;2.10;1.40;;;;;;;17.64;69.21;99355.01;130995;1250;107414;-79
2023/08/04 00:44:23;;;;;;;2.80;1.50;;;;;;;17.62;69.27;99357.71;131032;1253;107470;-79
2023/08/04 00:47:35;;;;;;;3.30;1.50;;;;;;;17.63;69.38;99362.06;131003;1251;107499;-79
2023/08/04 00:50:40;;;;;;;3.20;1.40;;;;;;;17.65;69.37;99371.17;130936;1253;106410;-79
2023/08/04 00:53:46;;;;;;;7.10;1.50;;;;;;;17.65;69.42;99371.88;131017;1253;107582;-79
2023/08/04 00:56:53;;;;;;;2.50;1.40;;;;;;;17.63;69.43;99375.09;131017;1253;107572;-79
2023/08/04 00:59:59;;;;;;;3.10;1.50;;;;;;;17.60;69.59;99369.17;131035;1250;107106;-79
2023/08/04 01:03:05;;;;;;;3.70;1.70;;;;;;;17.58;69.64;99368.63;130897;1256;107413;-79
2023/08/04 01:06:16;;;;;;;2.30;1.40;;;;;;;17.54;70.01;99369.57;130982;1254;108737;-79
2023/08/04 01:09:33;;;;;;;2.50;1.30;;;;;;;17.52;70.03;99368.55;130891;1255;107545;-79
2023/08/04 01:12:47;;;;;;;3.00;1.40;;;;;;;17.52;70.06;99373.20;130958;1250;107615;-79
2023/08/04 01:15:53;;;;;;;5.00;1.60;;;;;;;17.53;70.03;99371.33;130895;1254;107576;-79
2023/08/04 01:19:01;;;;;;;2.70;1.50;;;;;;;17.54;70.13;99377.84;130965;1256;107615;-79
2023/08/04 01:22:07;;;;;;;2.90;1.30;;;;;;;17.53;70.20;99373.64;131015;1253;107148;-79
2023/08/04 01:25:13;;;;;;;3.10;1.20;;;;;;;17.51;70.18;99375.25;130920;1253;108614;-78
2023/08/04 01:28:20;;;;;;;2.80;1.40;;;;;;;17.47;70.22;99372.12;130984;1250;107215;-79
2023/08/04 01:31:26;;;;;;;2.80;1.60;;;;;;;17.42;70.39;99368.59;130986;1255;107587;-79
2023/08/04 01:34:32;;;;;;;2.30;1.30;;;;;;;17.37;70.48;99373.19;130934;1253;107344;-79
2023/08/04 01:37:38;;;;;;;2.30;1.20;;;;;;;17.33;70.57;99374.51;130910;1254;105567;-80
2023/08/04 01:40:43;;;;;;;4.20;1.70;;;;;;;17.31;70.72;99372.37;130900;1254;106712;-79
2023/08/04 01:43:49;;;;;;;3.20;1.60;;;;;;;17.31;70.88;99370.45;130993;1253;106820;-79
2023/08/04 01:46:54;;;;;;;2.90;1.50;;;;;;;17.30;70.81;99375.20;130926;1254;107207;-79
2023/08/04 01:50:00;;;;;;;2.40;1.50;;;;;;;17.26;70.97;99382.06;130944;1256;106017;-79
2023/08/04 01:53:05;;;;;;;3.30;1.50;;;;;;;17.22;71.07;99386.23;130894;1250;107271;-79
2023/08/04 01:56:11;;;;;;;4.50;1.40;;;;;;;17.19;71.19;99396.59;131032;1256;108409;-79
2023/08/04 01:59:17;;;;;;;2.00;1.40;;;;;;;17.16;71.29;99392.21;130890;1256;107572;-78
2023/08/04 02:02:22;;;;;;;2.50;1.50;;;;;;;17.14;71.41;99388.79;130902;1255;107461;-79
2023/08/04 02:05:28;;;;;;;5.50;1.50;;;;;;;17.11;71.54;99394.11;130951;1254;107455;-79
2023/08/04 02:08:34;;;;;;;2.80;1.50;;;;;;;17.09;71.59;99397.27;130842;1253;107442;-78
2023/08/04 02:11:39;;;;;;;2.70;1.30;;;;;;;17.10;71.65;99400.30;130804;1254;107659;-79
2023/08/04 02:14:45;;;;;;;3.80;1.30;;;;;;;17.12;71.69;99405.02;130762;1253;107350;-79
2023/08/04 02:17:51;;;;;;;2.40;1.60;;;;;;;17.15;71.74;99396.15;131140;1253;107528;-78
2023/08/04 02:20:56;;;;;;;3.80;2.20;;;;;;;17.17;71.84;99403.23;130961;1252;107225;-77
2023/08/04 02:24:02;;;;;;;2.90;1.60;;;;;;;17.17;71.87;99405.64;131072;1254;107531;-78
2023/08/04 02:27:08;;;;;;;3.20;1.70;;;;;;;17.15;71.94;99401.23;131014;1252;107429;-78
2023/08/04 02:30:15;;;;;;;1.80;1.20;;;;;;;17.13;72.14;99401.94;131018;1251;107528;-80
2023/08/04 02:33:20;;;;;;;3.20;1.60;;;;;;;17.13;72.20;99405.50;131312;1250;107109;-80
2023/08/04 02:36:26;;;;;;;2.50;1.50;;;;;;;17.15;72.27;99402.16;131215;1253;107570;-77
2023/08/04 02:39:35;;;;;;;4.40;1.40;;;;;;;17.18;72.31;99405.72;131067;1254;107545;-79
2023/08/04 02:42:41;;;;;;;2.40;1.60;;;;;;;17.18;72.28;99412.61;131010;1253;107458;-80
2023/08/04 02:45:51;;;;;;;2.40;1.70;;;;;;;17.15;72.30;99421.66;131075;1251;107246;-77
2023/08/04 02:48:56;;;;;;;2.80;1.50;;;;;;;17.12;72.49;99424.75;131135;1253;107528;-76
2023/08/04 02:52:02;;;;;;;4.80;1.50;;;;;;;17.11;72.59;99428.11;130995;1253;107669;-76
2023/08/04 02:55:10;;;;;;;3.00;1.50;;;;;;;17.12;72.66;99437.16;130909;1252;107377;-76
2023/08/04 02:58:15;;;;;;;4.20;1.60;;;;;;;17.13;72.75;99452.68;130950;1253;107334;-75
2023/08/04 03:01:21;;;;;;;2.20;1.50;;;;;;;17.13;72.88;99463.40;130937;1254;107514;-75
2023/08/04 03:04:26;;;;;;;3.80;1.50;;;;;;;17.15;72.89;99471.05;131030;1250;107491;-76
2023/08/04 03:07:34;;;;;;;3.40;1.40;;;;;;;17.16;72.85;99475.66;130964;1253;108633;-76
2023/08/04 03:10:42;;;;;;;2.50;1.60;;;;;;;17.15;72.92;99480.05;130984;1250;110402;-76
2023/08/04 03:13:48;;;;;;;2.80;1.60;;;;;;;17.14;73.04;99477.11;131082;1253;107583;-76
2023/08/04 03:16:53;;;;;;;3.30;1.50;;;;;;;17.11;73.08;99479.38;131003;1255;107529;-76
2023/08/04 03:19:59;;;;;;;2.70;1.40;;;;;;;17.07;73.24;99475.27;131079;1253;107566;-76
2023/08/04 03:23:05;;;;;;;3.70;1.30;;;;;;;17.04;73.18;99473.59;131023;1253;106777;-76
2023/08/04 03:26:10;;;;;;;3.00;1.40;;;;;;;17.03;73.34;99466.20;131015;1257;107537;-77
2023/08/04 03:29:16;;;;;;;3.90;1.50;;;;;;;17.02;73.35;99466.14;130982;1251;107516;-76
2023/08/04 03:32:21;;;;;;;2.00;1.30;;;;;;;17.02;73.32;99466.67;131106;1251;107600;-76
2023/08/04 03:35:27;;;;;;;2.90;1.40;;;;;;;17.03;73.44;99467.52;131090;1251;107266;-76
2023/08/04 03:38:32;;;;;;;3.70;1.80;;;;;;;17.04;73.43;99465.71;131023;1253;107399;-76
2023/08/04 03:41:38;;;;;;;2.00;1.30;;;;;;;17.06;73.49;99469.77;130985;1253;107430;-76
2023/08/04 03:44:43;;;;;;;2.60;1.20;;;;;;;17.08;73.69;99470.55;131028;1259;107531;-77
2023/08/04 03:47:49;;;;;;;3.00;1.30;;;;;;;17.14;73.60;99473.02;131028;1253;107476;-76
2023/08/04 03:50:54;;;;;;;3.80;1.60;;;;;;;17.21;73.66;99477.74;131025;1256;107538;-76
2023/08/04 03:53:59;;;;;;;3.60;1.60;;;;;;;17.33;73.70;99475.31;131069;1257;107533;-76
2023/08/04 03:57:06;;;;;;;3.10;1.60;;;;;;;17.56;73.79;99478.08;130968;1250;107657;-76
2023/08/04 04:00:12;;;;;;;4.80;1.50;;;;;;;17.84;73.66;99475.70;131074;1253;107268;-76
2023/08/04 04:03:18;;;;;;;2.50;1.40;;;;;;;18.11;73.54;99468.21;131104;1251;107477;-76
2023/08/04 04:06:23;;;;;;;3.40;1.40;;;;;;;18.31;73.47;99470.42;131015;1253;105878;-76
2023/08/04 04:09:29;;;;;;;4.00;1.40;;;;;;;18.57;73.34;99472.23;131099;1253;107543;-76
2023/08/04 04:12:36;;;;;;;1.70;1.20;;;;;;;18.81;73.00;99476.19;131092;1255;107522;-76
2023/08/04 04:15:41;;;;;;;4.30;1.50;;;;;;;18.97;72.71;99472.39;131063;1254;107411;-76
2023/08/04 04:18:47;;;;;;;2.80;1.30;;;;;;;19.06;72.67;99477.80;131079;1250;107516;-77
2023/08/04 04:21:52;;;;;;;2.20;1.20;;;;;;;19.14;72.56;99493.85;131117;1250;107277;-76
2023/08/04 04:24:58;;;;;;;1.80;1.20;;;;;;;19.17;72.52;99502.70;131099;1253;107627;-80
2023/08/04 04:28:04;;;;;;;3.30;1.20;;;;;;;19.17;72.46;99512.23;130971;1253;107533;-75
2023/08/04 04:31:09;;;;;;;3.00;1.50;;;;;;;19.15;72.26;99500.11;131028;1253;107405;-75
2023/08/04 04:34:15;;;;;;;2.50;1.20;;;;;;;19.09;72.24;99497.14;131045;1253;107557;-76
2023/08/04 04:37:20;;;;;;;2.20;1.10;;;;;;;19.08;72.28;99496.00;131045;1257;107509;-75
2023/08/04 04:40:26;;;;;;;4.60;1.30;;;;;;;19.17;72.48;99502.65;131136;1253;107233;-76
2023/08/04 04:43:31;;;;;;;4.90;2.30;;;;;;;19.48;72.62;99507.95;131127;1253;105944;-76
2023/08/04 04:46:37;;;;;;;6.40;1.60;;;;;;;19.89;72.24;99509.34;131063;1250;107660;-76
2023/08/04 04:49:42;;;;;;;3.40;1.50;;;;;;;20.26;71.92;99512.93;131595;1250;107496;-76
2023/08/04 04:52:48;;;;;;;1.90;1.30;;;;;;;20.56;71.30;99513.96;131020;1251;107614;-76
2023/08/04 04:55:53;;;;;;;3.40;1.80;;;;;;;20.77;71.17;99523.34;131053;1253;107598;-76
2023/08/04 04:58:59;;;;;;;3.10;1.50;;;;;;;20.88;70.73;99527.85;131021;1253;107699;-75
2023/08/04 05:02:05;;;;;;;2.40;1.30;;;;;;;20.94;70.62;99529.89;131105;1253;107518;-76
2023/08/04 05:05:12;;;;;;;2.80;1.50;;;;;;;20.99;70.34;99535.68;130985;1254;106544;-78
2023/08/04 05:08:17;;;;;;;2.30;1.30;;;;;;;21.01;70.14;99533.61;131186;1253;106600;-79
2023/08/04 05:11:23;;;;;;;2.50;1.10;;;;;;;21.01;70.09;99527.00;131096;1253;107590;-78
2023/08/04 05:14:28;;;;;;;2.10;1.30;;;;;;;20.99;69.95;99526.58;130977;1253;107352;-78
2023/08/04 05:17:35;;;;;;;4.30;1.20;;;;;;;20.96;69.91;99528.30;131062;1256;107501;-77
2023/08/04 05:20:41;;;;;;;3.90;1.40;;;;;;;20.97;69.85;99527.83;131101;1251;108629;-78
2023/08/04 05:23:46;;;;;;;2.90;1.60;;;;;;;21.00;69.72;99525.19;131072;1253;107386;-77
2023/08/04 05:26:51;;;;;;;2.60;1.30;;;;;;;21.07;69.75;99528.26;131072;1256;107515;-77
2023/08/04 05:29:57;;;;;;;2.40;1.20;;;;;;;21.22;69.72;99531.25;130988;1250;108137;-77
2023/08/04 05:33:05;;;;;;;1.70;1.30;;;;;;;21.39;69.47;99527.69;131086;1256;107554;-81
2023/08/04 05:36:12;;;;;;;2.70;1.40;;;;;;;21.51;69.26;99531.31;131343;1251;107153;-78
2023/08/04 05:39:18;;;;;;;2.80;1.20;;;;;;;21.59;69.08;99534.23;131075;1256;107226;-77
2023/08/04 05:42:24;;;;;;;2.00;1.30;;;;;;;21.68;68.89;99540.14;131132;1251;109166;-77
2023/08/04 05:45:29;;;;;;;1.70;1.10;;;;;;;21.81;68.88;99540.49;131108;1253;107275;-77
2023/08/04 05:48:36;;;;;;;2.30;1.00;;;;;;;21.95;68.75;99532.70;131030;1250;107293;-76
2023/08/04 05:51:41;;;;;;;2.50;0.90;;;;;;;22.02;68.40;99538.93;130908;1257;107192;-77
2023/08/04 05:54:47;;;;;;;2.70;1.10;;;;;;;22.08;68.32;99545.70;130913;1254;107513;-78
2023/08/04 05:57:53;;;;;;;2.20;1.00;;;;;;;22.14;67.85;99552.46;131145;1253;107392;-78
2023/08/04 06:00:58;;;;;;;1.40;1.00;;;;;;;22.12;67.54;99555.04;130990;1255;107574;-77
2023/08/04 06:04:04;;;;;;;1.50;0.90;;;;;;;22.08;67.39;99548.45;131093;1253;107575;-77
2023/08/04 06:07:10;;;;;;;1.60;1.10;;;;;;;22.10;67.27;99550.33;130985;1253;107535;-78
2023/08/04 06:10:18;;;;;;;2.00;1.00;;;;;;;22.14;67.39;99552.35;130956;1250;107514;-78
2023/08/04 06:13:24;;;;;;;1.80;1.10;;;;;;;22.22;67.17;99547.88;131098;1250;107264;-78
2023/08/04 06:16:29;;;;;;;2.10;1.30;;;;;;;22.27;67.02;99547.60;130941;1257;108485;-78
2023/08/04 06:19:35;;;;;;;1.80;1.10;;;;;;;22.29;66.65;99547.02;131030;1254;107459;-78
2023/08/04 06:22:40;;;;;;;2.40;1.00;;;;;;;22.33;66.44;99548.06;130959;1265;107520;-79
2023/08/04 06:25:46;;;;;;;2.00;1.10;;;;;;;22.43;66.47;99546.91;131024;1254;106754;-78
2023/08/04 06:28:51;;;;;;;3.50;1.10;;;;;;;22.52;66.19;99552.00;131048;1253;107532;-78
2023/08/04 06:31:57;;;;;;;3.00;1.30;;;;;;;22.55;65.85;99547.70;130952;1254;107524;-78
2023/08/04 06:35:03;;;;;;;1.60;1.00;;;;;;;22.57;65.97;99546.74;131107;1255;107587;-78
2023/08/04 06:38:08;;;;;;;1.20;0.70;;;;;;;22.53;65.38;99553.86;131054;1253;107481;-79
2023/08/04 06:41:14;;;;;;;1.50;0.90;;;;;;;22.45;65.43;99560.20;131219;1250;106481;-77
2023/08/04 06:44:20;;;;;;;2.40;1.00;;;;;;;22.42;65.05;99564.77;131096;1250;107257;-77
2023/08/04 06:47:25;;;;;;;1.50;0.90;;;;;;;22.39;64.87;99565.39;130890;1253;108896;-78
2023/08/04 06:50:31;;;;;;;1.30;0.80;;;;;;;22.30;64.85;99570.36;131088;1253;107484;-77
2023/08/04 06:53:36;;;;;;;2.40;0.90;;;;;;;22.25;64.84;99571.96;131057;1256;107942;-77
2023/08/04 06:56:42;;;;;;;1.20;0.80;;;;;;;22.22;64.60;99580.86;131104;1253;107491;-78
2023/08/04 06:59:48;;;;;;;1.40;0.80;;;;;;;22.25;64.61;99589.95;131174;1253;107514;-77
2023/08/04 07:02:56;;;;;;;1.10;0.70;;;;;;;22.37;64.48;99588.36;131181;1250;107410;-77
2023/08/04 07:06:03;;;;;;;1.60;0.90;;;;;;;22.47;64.50;99591.45;131102;1253;107573;-77
2023/08/04 07:09:08;;;;;;;1.30;0.70;;;;;;;22.55;64.23;99595.77;131035;1253;107394;-79
2023/08/04 07:12:14;;;;;;;1.50;1.00;;;;;;;22.57;64.30;99600.74;131023;1253;107556;-76
2023/08/04 07:15:20;;;;;;;1.80;1.10;;;;;;;22.62;64.10;99610.40;131079;1253;107258;-76
2023/08/04 07:18:26;;;;;;;2.70;0.90;;;;;;;22.69;64.06;99610.46;131115;1250;107256;-78
2023/08/04 07:21:34;;;;;;;1.50;1.10;;;;;;;22.78;63.99;99617.44;131028;1257;107469;-77
2023/08/04 07:24:39;;;;;;;1.70;0.90;;;;;;;22.81;63.91;99615.58;131074;1250;108250;-77
2023/08/04 07:27:45;;;;;;;1.40;1.00;;;;;;;22.82;63.79;99619.34;131130;1254;108079;-77
2023/08/04 07:30:51;;;;;;;2.20;1.10;;;;;;;22.87;63.66;99620.66;131061;1251;107545;-76
2023/08/04 07:33:56;;;;;;;2.50;1.00;;;;;;;22.95;63.50;99615.66;131031;1256;107516;-76
2023/08/04 07:37:02;;;;;;;3.60;1.20;;;;;;;23.01;63.52;99616.85;131030;1253;107477;-76
2023/08/04 07:40:10;;;;;;;1.80;1.20;;;;;;;23.08;63.49;99616.69;130996;1253;107521;-76
2023/08/04 07:43:15;;;;;;;2.50;1.10;;;;;;;23.16;63.55;99614.69;131079;1250;107304;-77
2023/08/04 07:46:25;;;;;;;3.10;1.00;;;;;;;23.28;63.40;99612.66;131092;1255;107469;-76
2023/08/04 07:49:31;;;;;;;1.70;1.20;;;;;;;23.37;63.40;99614.89;131063;1256;107271;-76
2023/08/04 07:52:36;;;;;;;2.80;1.20;;;;;;;23.45;63.13;99616.42;131047;1257;107539;-76
2023/08/04 07:55:42;;;;;;;2.50;1.10;;;;;;;23.46;62.91;99629.59;130962;1253;107555;-77
2023/08/04 07:58:48;;;;;;;2.20;1.20;;;;;;;23.51;62.75;99635.94;131207;1250;107570;-77
2023/08/04 08:01:53;;;;;;;3.40;1.20;;;;;;;23.50;62.51;99645.28;131203;1251;107581;-77
2023/08/04 08:04:59;;;;;;;1.60;1.10;;;;;;;23.40;62.57;99655.49;131244;1253;107671;-78
2023/08/04 08:08:05;;;;;;;2.30;1.20;;;;;;;23.46;62.84;99655.25;130972;1256;106064;-77
2023/08/04 08:11:11;;;;;;;2.30;1.30;;;;;;;23.62;62.63;99661.11;131018;1256;107222;-78
2023/08/04 08:14:17;;;;;;;5.10;1.40;;;;;;;23.76;62.29;99664.35;131084;1253;107644;-77
2023/08/04 08:17:23;;;;;;;3.00;1.30;;;;;;;23.79;61.99;99659.43;130992;1253;106586;-77
2023/08/04 08:20:28;;;;;;;3.30;1.20;;;;;;;23.76;61.84;99659.27;131076;1253;108654;-76
2023/08/04 08:23:34;;;;;;;1.70;1.00;;;;;;;23.74;62.00;99657.55;131031;1250;107377;-76
2023/08/04 08:26:39;;;;;;;2.60;1.10;;;;;;;23.72;61.92;99656.55;130966;1253;107500;-80
2023/08/04 08:29:45;;;;;;;3.20;1.20;;;;;;;23.72;61.48;99651.86;130996;1253;107668;-78
2023/08/04 08:32:50;;;;;;;1.70;1.10;;;;;;;23.72;61.35;99648.66;131040;1253;107615;-79
2023/08/04 08:35:56;;;;;;;5.40;1.40;;;;;;;23.72;61.13;99651.10;131160;1255;107636;-76
2023/08/04 08:39:01;;;;;;;2.20;0.90;;;;;;;23.67;60.95;99657.23;131090;1251;107510;-78
2023/08/04 08:42:08;;;;;;;1.30;1.10;;;;;;;23.60;60.89;99655.92;131145;1253;107488;-79
2023/08/04 08:45:14;;;;;;;2.10;1.00;;;;;;;23.63;60.88;99665.70;131231;1251;107254;-77
2023/08/04 08:48:21;;;;;;;1.90;1.00;;;;;;;23.64;60.70;99669.84;131245;1257;107631;-77
2023/08/04 08:51:28;;;;;;;1.70;0.80;;;;;;;23.69;60.71;99674.01;131152;1263;107340;-77
2023/08/04 08:54:35;;;;;;;1.40;0.90;;;;;;;23.67;60.12;99677.90;131217;1253;108532;-77
2023/08/04 08:57:42;;;;;;;1.50;0.90;;;;;;;23.65;60.44;99677.19;131217;1251;107540;-77
2023/08/04 09:00:48;;;;;;;2.10;0.80;;;;;;;23.71;60.18;99677.78;131714;1253;107373;-77
2023/08/04 09:03:54;;;;;;;4.20;0.80;;;;;;;23.79;59.90;99682.04;131172;1253;107503;-77
2023/08/04 09:07:00;;;;;;;2.00;0.90;;;;;;;23.84;59.34;99682.55;131053;1256;107488;-77
2023/08/04 09:10:07;;;;;;;1.50;0.60;;;;;;;23.85;58.76;99684.67;131086;1254;108671;-77
2023/08/04 09:13:15;;;;;;;2.50;0.90;;;;;;;23.90;58.98;99689.20;131072;1254;108647;-77
2023/08/04 09:16:33;;;;;;;2.30;0.70;;;;;;;23.96;58.95;99685.62;131101;1253;107570;-79
2023/08/04 09:19:39;;;;;;;1.60;1.10;;;;;;;24.03;58.49;99684.12;131295;1253;107560;-79
2023/08/04 09:22:45;;;;;;;1.60;0.70;;;;;;;24.13;58.12;99684.11;131168;1253;107483;-78
2023/08/04 09:25:54;;;;;;;1.50;0.90;;;;;;;24.28;58.18;99682.57;131096;1250;107590;-77
2023/08/04 09:29:07;;;;;;;2.50;0.70;;;;;;;24.43;58.08;99681.63;131201;1254;107696;-78
2023/08/04 09:32:15;;;;;;;1.00;0.70;;;;;;;24.57;57.52;99682.71;131131;1257;107693;-80
2023/08/04 09:35:20;;;;;;;1.10;0.70;;;;;;;24.68;57.31;99685.04;131300;1256;107638;-79
2023/08/04 09:38:26;;;;;;;0.70;0.60;;;;;;;24.75;56.71;99685.03;131139;1250;107737;-78
2023/08/04 09:41:34;;;;;;;2.30;0.60;;;;;;;24.77;57.10;99686.02;131217;1251;107531;-78
2023/08/04 09:44:40;;;;;;;2.40;0.60;;;;;;;24.96;56.89;99686.23;131126;1253;107576;-78
2023/08/04 09:47:50;;;;;;;1.70;0.60;;;;;;;25.18;56.28;99682.41;130992;1257;107645;-78
2023/08/04 09:51:09;;;;;;;1.70;0.50;;;;;;;25.30;56.04;99675.45;131163;1256;107355;-77
2023/08/04 09:54:15;;;;;;;1.40;0.60;;;;;;;25.57;55.74;99676.94;131128;1252;107518;-77
2023/08/04 09:57:22;;;;;;;1.00;0.60;;;;;;;25.86;54.98;99679.37;131067;1258;107372;-79
2023/08/04 10:00:28;;;;;;;2.40;0.60;;;;;;;26.10;54.54;99677.60;131177;1253;108006;-78
2023/08/04 10:03:35;;;;;;;1.90;0.70;;;;;;;26.28;54.21;99675.01;131025;1253;107609;-78
2023/08/04 10:06:43;;;;;;;1.60;0.60;;;;;;;26.49;53.44;99687.39;131084;1251;107167;-79
2023/08/04 10:09:50;;;;;;;1.50;0.60;;;;;;;26.63;53.04;99680.35;131091;1254;107299;-79
2023/08/04 10:12:55;;;;;;;2.20;0.60;;;;;;;26.70;53.02;99683.16;131216;1256;107481;-79
2023/08/04 10:16:05;;;;;;;1.80;0.60;;;;;;;26.70;51.95;99674.62;131143;1263;107520;-79
2023/08/04 10:19:12;;;;;;;1.00;0.40;;;;;;;26.53;51.26;99682.20;131114;1253;107476;-79
2023/08/04 10:22:18;;;;;;;0.70;0.40;;;;;;;26.44;52.44;99680.88;131164;1264;108631;-79
2023/08/04 10:25:24;;;;;;;1.00;0.60;;;;;;;26.52;52.49;99681.80;131101;1253;106131;-79
2023/08/04 10:28:33;;;;;;;1.70;0.70;;;;;;;26.62;52.06;99684.91;131190;1253;107703;-79
2023/08/04 10:31:48;;;;;;;0.80;0.40;;;;;;;26.60;50.71;99686.59;131064;1253;109120;-79
2023/08/04 10:34:54;;;;;;;0.90;0.60;;;;;;;26.58;49.74;99685.27;131201;1260;107524;-79
2023/08/04 10:38:02;;;;;;;0.70;0.50;;;;;;;26.50;50.58;99695.80;131460;1255;107424;-79
2023/08/04 10:41:08;;;;;;;1.20;0.60;;;;;;;26.47;50.93;99695.80;131045;1264;105660;-79
2023/08/04 10:44:14;;;;;;;1.90;0.60;;;;;;;26.37;50.85;99694.05;131104;1254;107410;-79
2023/08/04 10:47:31;;;;;;;0.80;0.50;;;;;;;26.35;50.39;99691.64;131127;1253;107473;-79
2023/08/04 10:50:37;;;;;;;0.80;0.50;;;;;;;26.50;50.39;99692.54;131292;1257;108701;-79
2023/08/04 10:53:42;;;;;;;1.70;0.50;;;;;;;26.62;50.30;99690.55;131378;1253;107230;-80
2023/08/04 10:56:49;;;;;;;1.20;0.50;;;;;;;26.49;49.31;99692.15;131330;1250;107852;-79
2023/08/04 10:59:55;;;;;;;0.70;0.50;;;;;;;26.27;49.79;99700.87;131286;1253;107496;-79
2023/08/04 11:03:00;;;;;;;0.80;0.60;;;;;;;26.15;50.14;99709.70;131161;1254;107492;-78
2023/08/04 11:06:07;;;;;;;1.00;0.80;;;;;;;26.16;49.91;99706.60;131075;1257;107648;-77
2023/08/04 11:09:12;;;;;;;0.60;0.60;;;;;;;26.20;49.86;99704.20;131077;1264;108679;-77
2023/08/04 11:12:18;;;;;;;2.70;0.60;;;;;;;26.35;49.72;99704.71;130967;1256;107438;-77
2023/08/04 11:15:24;;;;;;;2.20;0.60;;;;;;;26.50;49.29;99698.55;131038;1263;107725;-77
2023/08/04 11:18:31;;;;;;;1.10;0.50;;;;;;;26.50;48.95;99692.91;131023;1255;107467;-78
2023/08/04 11:21:36;;;;;;;1.40;0.60;;;;;;;26.52;49.51;99689.42;131127;1254;107633;-78
2023/08/04 11:24:42;;;;;;;1.60;0.60;;;;;;;26.49;49.34;99690.28;131089;1264;107527;-78
2023/08/04 11:27:48;;;;;;;0.70;0.50;;;;;;;26.45;49.35;99691.76;131048;1254;107650;-78
2023/08/04 11:31:03;;;;;;;0.90;0.60;;;;;;;26.47;49.33;99691.21;131057;1258;107527;-78
2023/08/04 11:34:14;;;;;;;1.00;0.60;;;;;;;26.53;49.05;99692.15;131110;1251;107372;-77
2023/08/04 11:37:20;;;;;;;0.80;0.60;;;;;;;26.41;48.32;99689.13;131152;1251;107215;-78
2023/08/04 11:40:26;;;;;;;0.50;0.50;;;;;;;26.32;48.86;99690.70;131005;1256;107525;-78
2023/08/04 11:43:33;;;;;;;1.00;0.50;;;;;;;26.37;48.68;99685.73;131105;1263;107403;-78
2023/08/04 11:46:40;;;;;;;1.10;0.60;;;;;;;26.49;49.02;99689.73;131043;1264;107420;-79
2023/08/04 11:49:46;;;;;;;1.20;0.60;;;;;;;26.52;48.67;99693.58;131120;1253;107134;-77
2023/08/04 11:52:52;;;;;;;1.00;0.60;;;;;;;26.45;48.62;99697.40;130988;1254;107340;-77
2023/08/04 11:55:59;;;;;;;1.30;0.60;;;;;;;26.40;48.80;99700.40;131050;1257;107607;-77
2023/08/04 11:59:12;;;;;;;1.30;0.60;;;;;;;26.50;48.50;99702.70;131102;1255;107522;-78
2023/08/04 12:02:18;;;;;;;0.80;0.50;;;;;;;26.55;48.58;99702.05;130971;1254;107371;-77
2023/08/04 12:05:31;;;;;;;1.30;0.60;;;;;;;26.53;46.53;99699.76;131250;1251;107393;-80
2023/08/04 12:08:36;;;;;;;2.80;0.60;;;;;;;26.40;47.67;99693.67;131021;1263;107693;-77
2023/08/04 12:11:50;;;;;;;0.90;0.50;;;;;;;26.43;47.85;99692.09;130939;1252;107542;-77
2023/08/04 12:15:00;;;;;;;1.60;0.70;;;;;;;26.44;47.28;99693.02;131357;1253;107678;-79
2023/08/04 12:18:05;;;;;;;1.80;0.70;;;;;;;26.40;47.68;99695.64;131145;1254;107198;-79
2023/08/04 12:21:15;;;;;;;2.80;0.80;;;;;;;26.40;47.45;99699.36;131247;1257;106425;-79
2023/08/04 12:24:21;;;;;;;1.70;0.70;;;;;;;26.41;47.36;99704.50;131201;1264;107803;-78
2023/08/04 12:27:28;;;;;;;1.60;0.60;;;;;;;26.38;46.15;99705.77;131017;1251;108538;-79
2023/08/04 12:30:34;;;;;;;1.70;0.80;;;;;;;26.31;45.60;99707.98;131049;1251;107235;-78
2023/08/04 12:33:39;;;;;;;1.00;0.60;;;;;;;26.12;45.85;99713.64;131017;1256;107105;-79
2023/08/04 12:36:45;;;;;;;1.20;0.70;;;;;;;26.04;45.93;99708.86;131117;1255;105672;-79
2023/08/04 12:39:52;;;;;;;0.80;0.50;;;;;;;25.98;46.25;99709.17;131120;1251;107525;-78
2023/08/04 12:42:57;;;;;;;1.20;0.60;;;;;;;26.16;47.12;99711.17;131103;1255;107522;-78
2023/08/04 12:46:03;;;;;;;1.20;0.60;;;;;;;26.36;46.79;99702.09;131071;1251;109104;-78
2023/08/04 12:49:09;;;;;;;1.30;0.80;;;;;;;26.44;46.81;99694.65;130329;1254;1221043;-78
2023/08/04 12:52:16;;;;;;;1.40;0.60;;;;;;;26.58;46.67;99695.57;131282;1261;107666;-80
2023/08/04 12:55:22;;;;;;;1.70;0.70;;;;;;;26.71;46.29;99700.84;131318;1255;107486;-79
2023/08/04 12:58:27;;;;;;;1.10;0.60;;;;;;;26.73;44.55;99698.63;131030;1251;107611;-77
2023/08/04 13:01:33;;;;;;;3.00;0.70;;;;;;;26.77;45.61;99702.97;131076;1257;107592;-77
2023/08/04 13:04:39;;;;;;;1.00;0.60;;;;;;;26.73;44.80;99695.69;131156;1255;107528;-80
2023/08/04 13:07:48;;;;;;;1.30;0.80;;;;;;;26.67;45.86;99703.90;131015;1251;107543;-80
2023/08/04 13:10:53;;;;;;;0.80;0.60;;;;;;;26.56;45.69;99701.30;131100;1263;107820;-79
2023/08/04 13:13:59;;;;;;;1.00;0.50;;;;;;;26.44;45.79;99695.95;130958;1264;107292;-78
2023/08/04 13:17:05;;;;;;;1.40;0.70;;;;;;;26.43;45.45;99699.14;130933;1263;107609;-78
2023/08/04 13:20:11;;;;;;;0.80;0.60;;;;;;;26.44;45.53;99699.48;130995;1254;107393;-80
2023/08/04 13:23:23;;;;;;;1.60;0.80;;;;;;;26.40;45.63;99694.16;131019;1257;105678;-77
2023/08/04 13:26:33;;;;;;;0.90;0.60;;;;;;;26.38;45.40;99684.10;130949;1257;108580;-79
2023/08/04 13:29:42;;;;;;;3.60;0.70;;;;;;;26.50;45.20;99683.83;131033;1253;108158;-80
2023/08/04 13:32:48;;;;;;;1.20;0.80;;;;;;;26.58;45.62;99687.30;131087;1251;107510;-77
2023/08/04 13:35:53;;;;;;;2.90;0.80;;;;;;;26.71;44.88;99693.66;131426;1251;107217;-79
2023/08/04 13:38:59;;;;;;;0.70;0.60;;;;;;;26.86;44.88;99692.29;131050;1254;107518;-78
2023/08/04 13:42:07;;;;;;;0.50;0.50;;;;;;;26.91;44.75;99696.67;131093;1254;107558;-79
2023/08/04 13:45:15;;;;;;;1.00;0.70;;;;;;;26.90;44.70;99699.56;131023;1254;107993;-78
2023/08/04 13:48:21;;;;;;;1.20;0.60;;;;;;;26.89;44.43;99701.60;130980;1253;109110;-78
2023/08/04 13:51:26;;;;;;;1.10;0.60;;;;;;;26.89;44.44;99702.58;131030;1251;107525;-78
2023/08/04 13:54:32;;;;;;;1.60;0.70;;;;;;;26.89;44.49;99712.77;131071;1252;107481;-78
2023/08/04 13:57:37;;;;;;;0.90;0.60;;;;;;;26.94;44.41;99706.90;131023;1256;107955;-77
2023/08/04 14:00:43;;;;;;;0.90;0.60;;;;;;;27.02;44.01;99707.00;131024;1263;107474;-78
2023/08/04 14:03:48;;;;;;;2.20;0.60;;;;;;;27.12;44.07;99712.42;131050;1254;107582;-78
2023/08/04 14:06:54;;;;;;;2.90;0.60;;;;;;;27.22;44.00;99716.13;131084;1251;107586;-78
2023/08/04 14:09:59;;;;;;;1.10;0.80;;;;;;;27.25;42.83;99706.10;130962;1253;107543;-78
2023/08/04 14:13:05;;;;;;;1.20;0.60;;;;;;;27.28;43.71;99710.61;131072;1254;107511;-78
2023/08/04 14:16:12;;;;;;;1.20;0.80;;;;;;;27.36;43.54;99713.66;130991;1251;107607;-78